Flight Track Log - Related Links

Times and Time Zones

All times are in EDT time to prevent confusion due to time zone crossing. See the LXJ541 flight status page for this flight to view local times or setup timezone preferences in your user account.

Time Position Orientation Groundspeed Altitude Reporting Facility
EDT Latitude Longitude Course Direction KTS MPH feet Rate Location/Type
Thu 12:22:51 PM 26.6836 -80.0025 61° Northeast 251 289 4,700  Level Miami Center
Thu 12:23:51 PM 26.7286 -79.9547 43° Northeast 278 320 8,600 3,450 Climbing Miami Center
Thu 12:24:51 PM 26.8031 -79.8847 40° Northeast 286 329 11,600 2,450 Climbing Miami Center
Thu 12:25:51 PM 26.8675 -79.7956 51° Northeast 338 389 13,500 1,200 Climbing Miami Center
Thu 12:26:51 PM 26.9256 -79.7083 53° Northeast 381 438 14,000 400 Climbing Miami Center
Thu 12:27:51 PM 26.9881 -79.6119 54° Northeast 390 449 14,300 1,600 Climbing Miami Center
Thu 12:28:00 PM 27.0747 -79.4506 61° Northeast  Level FlightAware Approximate
Thu 12:28:51 PM 27.0589 -79.5042 54° Northeast 385 443 17,200  Level Miami Center
Thu 12:29:51 PM 27.1236 -79.4006 55° Northeast 385 443 19,500 2,350 Climbing Miami Center
Thu 12:30:51 PM 27.1878 -79.3061 53° Northeast 410 472 21,900 1,900 Climbing Miami Center
Thu 12:31:51 PM 27.2586 -79.1956 54° Northeast 433 498 23,300 2,050 Climbing Miami Center
Thu 12:32:51 PM 27.3400 -79.0686 54° Northeast 451 519 26,000 2,300 Climbing Miami Center
Thu 12:33:51 PM 27.4228 -78.9625 49° Northeast 456 525 27,900 1,850 Climbing Miami Center
Thu 12:34:51 PM 27.5486 -78.9297 13° North 433 498 29,700 1,750 Climbing Miami Center
Thu 12:35:51 PM 27.6617 -78.9153 North 438 504 31,400 1,750 Climbing Miami Center
Thu 12:36:51 PM 27.7872 -78.8989 North 454 522 33,200 1,850 Climbing Miami Center
Thu 12:37:51 PM 27.9253 -78.8800 North 460 529 35,100 1,800 Climbing Miami Center
Thu 12:38:51 PM 28.0486 -78.8611 North 455 524 36,800 950 Climbing Miami Center
Thu 12:39:51 PM 28.1678 -78.8444 North 441 507 37,000 100 Climbing Miami Center
Thu 12:40:51 PM 28.2956 -78.8278 North 441 507 37,000  Level Miami Center
Thu 12:41:51 PM 28.4189 -78.8086 North 446 513 37,000  Level Miami Center
Thu 12:42:51 PM 28.5403 -78.7919 North 446 513 37,000  Level Miami Center
Thu 12:43:51 PM 28.6531 -78.7750 North 447 514 37,000  Level Miami Center
Thu 12:44:51 PM 28.7786 -78.7606 North 447 514 37,000  Level Miami Center
Thu 12:45:51 PM 28.9039 -78.7414 North 447 514 37,000  Level Miami Center
Thu 12:46:51 PM 29.0272 -78.7244 North 447 514 37,000  Level Miami Center
Thu 12:47:51 PM 29.1464 -78.7025 North 441 507 37,000  Level Miami Center
Thu 12:48:51 PM 29.2761 -78.6858 North 451 519 37,000  Level Miami Center
Thu 12:49:51 PM 29.4014 -78.6689 North 451 519 37,000  Level Miami Center
Thu 12:50:51 PM 29.5247 -78.6494 North 452 520 37,000  Level Miami Center
Thu 12:52:32 PM 29.7336 -78.6211 North 443 510 37,000  Level Jacksonville Center
Thu 12:53:31 PM 29.8539 -78.5992 North 443 510 37,000 450 Level Jacksonville Center
Thu 12:54:32 PM 29.9850 -78.5836 North 454 522 37,900 1,388 Climbing Jacksonville Center
Thu 12:55:32 PM 30.1033 -78.5639 North 449 517 39,800 1,550 Climbing Jacksonville Center
Thu 12:56:32 PM 30.2322 -78.5486 North 428 493 41,000 600 Climbing Jacksonville Center
Thu 12:57:32 PM 30.3464 -78.5289 North 418 481 41,000  Level Jacksonville Center
Thu 12:58:32 PM 30.4750 -78.5111 North 434 499 41,000  Level Jacksonville Center
Thu 12:59:32 PM 30.5933 -78.4911 North 440 506 41,000  Level Jacksonville Center
Thu 01:00:32 PM 30.7181 -78.4733 North 440 506 41,000  Level Jacksonville Center
Thu 01:01:31 PM 30.8406 -78.4531 North 440 506 41,000  Level Jacksonville Center
Thu 01:02:32 PM 30.9544 -78.4331 North 433 498 41,000  Level Jacksonville Center
Thu 01:03:32 PM 31.0769 -78.4128 North 433 498 41,000  Level Jacksonville Center
Thu 01:04:32 PM 31.1956 -78.3975 North 433 498 41,000  Level Jacksonville Center
Thu 01:05:32 PM 31.3178 -78.3769 North 433 498 41,000  Level Jacksonville Center
Thu 01:06:32 PM 31.4422 -78.3539 North 433 498 41,000  Level Jacksonville Center
Thu 01:07:32 PM 31.5628 -78.3358 North 441 507 41,000  Level Jacksonville Center
Thu 01:08:32 PM 31.6850 -78.3153 North 441 507 41,000  Level Jacksonville Center
Thu 01:09:32 PM 31.8075 -78.2919 North 441 507 41,000  Level Jacksonville Center
Thu 01:10:32 PM 31.9278 -78.2739 North 441 507 41,000  Level Jacksonville Center
Thu 01:11:32 PM 32.0483 -78.2556 North 441 507 41,000  Level Jacksonville Center
Thu 01:12:32 PM 32.1683 -78.2272 11° North 441 507 41,000  Level Jacksonville Center
Thu 01:13:32 PM 32.2953 -78.2158 North 441 507 41,000  Level Jacksonville Center
Thu 01:14:32 PM 32.4153 -78.1925 North 446 513 41,000  Level Jacksonville Center
Thu 01:15:32 PM 32.5397 -78.1714 North 446 513 41,000  Level Jacksonville Center
Thu 01:16:32 PM 32.6644 -78.1525 North 446 513 41,000  Level Jacksonville Center
Thu 01:17:32 PM 32.7886 -78.1311 North 446 513 41,000  Level Jacksonville Center
Thu 01:19:59 PM 33.0861 -78.0869 North 465 535 41,000  Level Washington Center
Thu 01:20:59 PM 33.2097 -78.0658 North 460 529 41,000  Level Washington Center
Thu 01:21:59 PM 33.3353 -78.0447 North 454 522 41,000  Level Washington Center
Thu 01:22:59 PM 33.4608 -78.0236 North 449 517 41,000  Level Washington Center
Thu 01:23:59 PM 33.5864 -78.0047 North 449 517 41,000  Level Washington Center
Thu 01:24:59 PM 33.7119 -77.9833 North 449 517 41,000  Level Washington Center
Thu 01:25:59 PM 33.8333 -77.9644 North 449 517 41,000  Level Washington Center
Thu 01:26:59 PM 33.9633 -77.9281 13° North 454 522 41,000  Level Washington Center
Thu 01:27:59 PM 34.0928 -77.9292 360° North 454 522 41,000 -650 Level Washington Center
Thu 01:28:59 PM 34.2403 -77.9583 351° North 494 568 39,700 -1,000 Descending Washington Center
Thu 01:29:59 PM 34.3672 -77.9772 353° North 469 540 39,000 -800 Descending Washington Center
Thu 01:30:59 PM 34.4964 -77.9883 356° North 463 533 38,100 -1,150 Descending Washington Center
Thu 01:31:59 PM 34.6278 -77.9847 North 463 533 36,700 -1,400 Descending Washington Center
Thu 01:32:59 PM 34.7614 -77.9761 North 463 533 35,300 -1,400 Descending Washington Center
Thu 01:33:59 PM 34.8972 -77.9675 North 482 555 33,900 -1,200 Descending Washington Center
Thu 01:34:59 PM 35.0350 -77.9614 North 487 560 32,900 -450 Descending Washington Center
Thu 01:35:59 PM 35.1750 -77.9553 North 487 560 33,000 50 Climbing Washington Center
Thu 01:36:59 PM 35.3128 -77.9517 North 493 567 33,000  Level Washington Center
Thu 01:37:59 PM 35.4467 -77.9378 North 493 567 33,000  Level Washington Center
Thu 01:38:59 PM 35.5844 -77.9289 North 488 562 33,000 -450 Level Washington Center
Thu 01:39:59 PM 35.7181 -77.9225 North 488 562 32,100 -1,100 Descending Washington Center
Thu 01:40:59 PM 35.8519 -77.9164 North 483 556 30,800 -1,350 Descending Washington Center
Thu 01:41:59 PM 35.9897 -77.9100 North 483 556 29,400 -1,300 Descending Washington Center
Thu 01:42:59 PM 36.1128 -77.9033 North 483 556 28,200 -1,200 Descending Washington Center
Thu 01:43:59 PM 36.2611 -77.8975 North 483 556 27,000 -600 Descending Washington Center
Thu 01:44:59 PM 36.3803 -77.8906 North 478 550 27,000  Level Washington Center
Thu 01:45:59 PM 36.5139 -77.8842 North 478 550 27,000 -600 Level Washington Center
Thu 01:46:59 PM 36.6406 -77.9217 347° North 473 544 25,800 -1,450 Descending Washington Center
Thu 01:47:59 PM 36.7625 -77.9667 344° North 468 539 24,100 -1,700 Descending Washington Center
Thu 01:48:59 PM 36.8808 -78.0067 345° North 448 516 22,400 -1,550 Descending Washington Center
Thu 01:49:59 PM 36.9947 -78.0467 344° North 434 499 21,000 -850 Descending Washington Center
Thu 01:50:59 PM 37.1086 -78.0869 344° North 423 487 20,700 -500 Descending Washington Center
Thu 01:51:59 PM 37.2244 -78.1272 345° North 423 487 20,000 -350 Descending Washington Center
Thu 01:52:59 PM 37.3550 -78.1706 345° North 431 496 20,000 -500 Level Washington Center
Thu 01:53:59 PM 37.4689 -78.2111 344° North 431 496 19,000 -1,450 Descending Washington Center
Thu 01:54:59 PM 37.5806 -78.2517 344° North 425 489 17,100 -2,000 Descending Washington Center
Thu 01:55:59 PM 37.6697 -78.2836 344° North 393 452 15,000 -2,150 Descending Washington Center
Thu 01:56:59 PM 37.7689 -78.3186 344° North 374 430 12,800 -2,150 Descending Washington Center
Thu 01:57:59 PM 37.8619 -78.3536 343° North 363 418 10,700 -2,350 Descending Washington Center
Thu 01:58:59 PM 37.9508 -78.3858 344° North 327 376 8,100 -2,400 Descending Washington Center
Thu 01:59:59 PM 37.9658 -78.4628 284° West 231 266 5,900 -2,300 Descending Washington Center
Thu 02:00:59 PM 37.9144 -78.5161 219° Southwest 165 190 3,500 -1,300 Descending Washington Center
Thu 02:01:59 PM 37.9444 -78.5672 307° West 153 176 3,300 -100 Descending Washington Center
Thu 02:02:59 PM 37.9978 -78.5219 34° Northeast 127 146 3,300 -400 Level Washington Center
Thu 02:03:59 PM 38.0569 -78.4900 23° Northeast 174 200 2,500 -800 Descending Washington Center
Thu 02:06:00 PM 38.1333 -78.4500 25° Northeast  Level FlightAware Approximate
Thu 02:13:00 PM 38.1386 -78.4529 25° Northeast  Level Estimated
Thu 02:14:00 PM 38.1333 -78.4500 25° Northeast  Level FlightAware Approximate
Thu 02:15:00 PM 38.1386 -78.4529 25° Northeast  Level Estimated
Thu 02:16:00 PM 38.1333 -78.4500 25° Northeast  Level FlightAware Approximate
Thu 02:17:00 PM 38.1386 -78.4529 25° Northeast  Level Estimated
Thu 02:18:00 PM 38.1333 -78.4500 25° Northeast  Level FlightAware Approximate
Thu 02:19:00 PM 38.1386 -78.4529 25° Northeast  Level Estimated
Thu 02:20:00 PM 38.1333 -78.4500 25° Northeast  Level FlightAware Approximate
Thu 02:21:00 PM 38.1386 -78.4529 25° Northeast  Level Estimated
Thu 02:22:00 PM 38.1333 -78.4500 25° Northeast  Level FlightAware Approximate
Thu 02:23:00 PM 38.1386 -78.4529 25° Northeast  Level Estimated

Login

Don't have an account? Register now (free) for customized features, flight alerts, and more!